Wilkes Barre, Pennsylvania
Current Conditions -  °F | °C
As of 6:54 PM on Sunday 23 Nov 2014 (Local Time) from KAVP Reporting Station
Clear Clear  
Wind Chill: 51°   Ceiling: Unl
Heat Index: 51°   Visibility: 10mi
Dew Point: 24°   Wind: 8mph
Humidity: 35%   Direction: 200°SSW
Pressure: 30.03"   Gusts: NA
Location:  41.2036°N, 75.8843°W
Report Text: KAVP 232354Z 20007KT 10SM CLR 11/M04 A3003 RMK AO2 SLP172 T01061044 10133 20078 56007
Loading
Personal Weather Stations






























Interactive Weather Map New forecast layout! Learn more

10-Day Weather Forecast

Advertisements
Track Severe Weather on mobile